Terminal Aerodrome Forecast
Issued by NWS Omaha/Valley, NE

Home | Current Version | Previous Version | Text Only | Print | Product List | Glossary On
Versions: 1 2 3 4 5 6 7 8 9 10 11 12 13 14 15 16 17 18 19 20 21
000
FTUS43 KOAX 192003 AAB
TAFOMA
TAF AMD
KOMA 192003Z 1920/2018 33013KT P6SM -SN OVC007
     FM192300 35008KT P6SM OVC015
     FM200700 36008KT 3SM -FZDZ BR OVC008
     FM201100 34011KT P6SM -FZDZ OVC015
     FM201400 33015KT P6SM OVC015=

USA.gov is the U.S. government's official web portal to all federal, state and local government web resources and services.